Joaquin, Texas
Current Conditions -  °F | °C
As of 1:56 PM on Sunday 25 Jan 2015 (Local Time) from KSHV Reporting Station
Few Clouds Few Clouds  
Wind Chill: 65°   Ceiling: Unl
Heat Index: 65°   Visibility: 10mi
Dew Point: 31°   Wind: 29mph
Humidity: 28%   Direction: 290°WNW
Pressure: 29.86"   Gusts: 36mph
Location:  31.97°N, 94.05°W
Report Text: KSHV 251956Z 29025G31KT 10SM FEW060 FEW290 18/M01 A2986 RMK AO2 PK WND 31032/1929 SLP110 T01831006
Loading
Personal Weather Stations






























Interactive Weather Map New forecast layout! Learn more

10-Day Weather Forecast

Advertisements
Track Severe Weather on mobile